Time;durP1;ratioP1;P1;durP2;ratioP2;P2;SDS_P1;SDS_P2;PMS_P1;PMS_P2;Temp;Humidity;BMP_temperature;BMP_pressure;BME280_temperature;BME280_humidity;BME280_pressure;Samples;Min_cycle;Max_cycle;Signal;HPM_P1;HPM_P2
2022/06/17 00:00:30;;;;;;;4.80;1.30;;;20.30;58.70;;;;;;5089837;28;21035;-74
2022/06/17 00:02:58;;;;;;;4.50;1.40;;;20.40;58.70;;;;;;5091431;28;20487;-74
2022/06/17 00:05:26;;;;;;;4.10;1.50;;;20.40;58.80;;;;;;5091479;28;20452;-73
2022/06/17 00:07:55;;;;;;;4.73;1.80;;;20.30;58.80;;;;;;5090643;28;20984;-73
2022/06/17 00:10:25;;;;;;;3.83;1.40;;;20.30;58.70;;;;;;5090676;28;20459;-74
2022/06/17 00:12:53;;;;;;;5.63;1.40;;;20.20;58.80;;;;;;5089302;28;20472;-74
2022/06/17 00:15:21;;;;;;;3.50;1.10;;;20.20;58.80;;;;;;5092353;28;20464;-73
2022/06/17 00:17:51;;;;;;;4.47;1.37;;;20.10;58.90;;;;;;5071449;28;20479;-72
2022/06/17 00:20:24;;;;;;;3.90;1.20;;;20.20;59.00;;;;;;5072697;28;20461;-72
2022/06/17 00:22:52;;;;;;;5.50;1.40;;;20.10;58.90;;;;;;5089247;28;20495;-72
2022/06/17 00:25:26;;;;;;;4.60;1.53;;;20.10;58.80;;;;;;5087095;28;20973;-71
2022/06/17 00:27:55;;;;;;;3.97;1.50;;;20.00;58.90;;;;;;5090596;28;20569;-74
2022/06/17 00:30:26;;;;;;;6.20;1.37;;;20.00;59.00;;;;;;5071573;28;20970;-74
2022/06/17 00:32:54;;;;;;;5.30;1.53;;;20.00;59.00;;;;;;5087733;28;20483;-74
2022/06/17 00:35:23;;;;;;;4.40;1.60;;;19.90;59.10;;;;;;5092308;28;20481;-74
2022/06/17 00:37:51;;;;;;;4.73;1.53;;;19.90;59.20;;;;;;5089539;28;20968;-74
2022/06/17 00:40:23;;;;;;;4.50;1.60;;;19.80;59.20;;;;;;5092417;28;20455;-73
2022/06/17 00:42:51;;;;;;;3.77;1.50;;;19.70;59.30;;;;;;5088766;28;20480;-74
2022/06/17 00:45:26;;;;;;;8.20;1.60;;;19.70;59.30;;;;;;5089290;28;20462;-72
2022/06/17 00:48:00;;;;;;;5.57;1.40;;;19.60;59.50;;;;;;5071103;28;20822;-72
2022/06/17 00:50:36;;;;;;;4.50;1.53;;;19.60;59.50;;;;;;5090001;28;20459;-73
2022/06/17 00:53:14;;;;;;;3.87;1.60;;;19.50;59.60;;;;;;5067764;28;20488;-74
2022/06/17 00:55:47;;;;;;;4.50;1.70;;;19.50;59.70;;;;;;5089877;28;20504;-74
2022/06/17 00:58:19;;;;;;;4.50;1.50;;;19.40;59.70;;;;;;5090109;28;20476;-74
2022/06/17 01:00:52;;;;;;;4.53;1.70;;;19.30;59.70;;;;;;5087304;28;20467;-74
2022/06/17 01:03:24;;;;;;;4.13;1.40;;;19.20;59.90;;;;;;5084319;28;20477;-74
2022/06/17 01:05:55;;;;;;;5.03;1.60;;;19.10;60.00;;;;;;5089400;28;21125;-73
2022/06/17 01:11:18;;;;;;;4.10;1.60;;;18.90;60.30;;;;;;5079109;28;20490;-73
2022/06/17 01:13:48;;;;;;;4.77;1.60;;;18.80;60.30;;;;;;5074524;28;20473;-74
2022/06/17 01:16:19;;;;;;;4.90;1.90;;;18.70;60.50;;;;;;5071494;28;20458;-74
2022/06/17 01:18:49;;;;;;;4.00;1.60;;;18.70;60.60;;;;;;5070558;28;20902;-73
2022/06/17 01:21:26;;;;;;;3.90;1.30;;;18.60;60.70;;;;;;5086744;28;21010;-74
2022/06/17 01:23:56;;;;;;;5.30;1.70;;;18.60;60.80;;;;;;5072672;28;20474;-75
2022/06/17 01:26:24;;;;;;;4.37;1.50;;;18.60;60.80;;;;;;5072922;28;20482;-73
2022/06/17 01:28:52;;;;;;;5.57;1.37;;;18.50;61.00;;;;;;5086117;28;21029;-73
2022/06/17 01:31:21;;;;;;;3.97;1.30;;;18.40;60.90;;;;;;5084672;28;20505;-73
2022/06/17 01:33:49;;;;;;;3.93;1.30;;;18.40;61.00;;;;;;5072496;28;20468;-73
2022/06/17 01:40:32;;;;;;;5.30;1.47;;;18.30;61.30;;;;;;5093174;28;20922;-74
2022/06/17 01:47:30;;;;;;;4.60;1.77;;;18.10;61.30;;;;;;5086640;28;20470;-71
2022/06/17 01:50:03;;;;;;;4.20;1.53;;;18.10;61.50;;;;;;5085624;28;20450;-71
2022/06/17 01:52:36;;;;;;;4.00;1.30;;;18.10;61.60;;;;;;5069303;28;20485;-72
2022/06/17 01:55:09;;;;;;;4.10;1.70;;;18.10;61.60;;;;;;5080755;28;20549;-74
2022/06/17 01:57:44;;;;;;;5.10;1.53;;;18.10;61.70;;;;;;5069730;28;20938;-74
2022/06/17 02:00:19;;;;;;;5.00;1.60;;;18.10;61.70;;;;;;5087402;28;20460;-73
2022/06/17 02:02:53;;;;;;;5.10;1.50;;;18.00;61.90;;;;;;5070711;28;20518;-72
2022/06/17 02:05:24;;;;;;;4.50;1.80;;;18.10;61.80;;;;;;5087901;28;20985;-72
2022/06/17 02:07:55;;;;;;;4.70;1.40;;;18.10;61.80;;;;;;5088155;28;20524;-72
2022/06/17 02:10:27;;;;;;;4.30;1.20;;;18.10;61.80;;;;;;5073791;28;20974;-72
2022/06/17 02:12:57;;;;;;;4.40;1.40;;;18.00;61.70;;;;;;5074668;28;20465;-74
2022/06/17 02:15:28;;;;;;;3.80;1.30;;;18.00;61.80;;;;;;5088759;28;20879;-73
2022/06/17 02:18:19;;;;;;;4.40;1.30;;;18.00;61.80;;;;;;5068377;28;20458;-75
2022/06/17 02:21:07;;;;;;;4.30;1.23;;;17.90;61.90;;;;;;5087169;28;20576;-73
2022/06/17 02:23:35;;;;;;;4.43;1.70;;;17.90;62.00;;;;;;5090074;28;20465;-75
2022/06/17 02:26:06;;;;;;;4.20;1.50;;;17.90;61.90;;;;;;5081906;28;20457;-73
2022/06/17 02:28:36;;;;;;;3.67;1.40;;;17.80;61.90;;;;;;5087015;28;20449;-74
2022/06/17 02:31:08;;;;;;;3.93;1.70;;;17.70;62.10;;;;;;5085892;28;20477;-74
2022/06/17 02:33:39;;;;;;;5.47;1.30;;;17.70;62.10;;;;;;5071002;28;20807;-74
2022/06/17 02:36:13;;;;;;;3.67;1.33;;;17.70;62.10;;;;;;5082013;28;20476;-74
2022/06/17 02:38:42;;;;;;;3.80;1.57;;;17.70;62.30;;;;;;5086741;28;20544;-74
2022/06/17 02:41:16;;;;;;;3.90;1.30;;;17.70;62.10;;;;;;5082360;28;20480;-73
2022/06/17 02:43:48;;;;;;;6.23;1.87;;;17.70;62.10;;;;;;5088349;28;20473;-74
2022/06/17 02:46:22;;;;;;;5.20;1.33;;;17.60;62.10;;;;;;5082489;28;21074;-74
2022/06/17 02:48:55;;;;;;;4.73;1.77;;;17.60;62.30;;;;;;5087754;28;20468;-73
2022/06/17 02:51:25;;;;;;;3.90;1.40;;;17.60;62.30;;;;;;5083231;28;20560;-74
2022/06/17 02:53:53;;;;;;;4.27;1.40;;;17.60;62.20;;;;;;5067175;28;21005;-73
2022/06/17 02:56:25;;;;;;;3.90;1.60;;;17.50;62.20;;;;;;5072520;28;20490;-73
2022/06/17 02:59:06;;;;;;;4.20;1.90;;;17.40;62.20;;;;;;5069390;28;20985;-74
2022/06/17 03:01:39;;;;;;;4.10;1.47;;;17.30;62.20;;;;;;5085736;28;21191;-73
2022/06/17 03:04:20;;;;;;;3.77;1.47;;;17.20;62.30;;;;;;5087050;28;20580;-74
2022/06/17 03:06:50;;;;;;;4.80;1.80;;;17.20;62.40;;;;;;5071433;28;20469;-73
2022/06/17 03:09:23;;;;;;;4.07;1.60;;;17.10;62.50;;;;;;5090743;28;20472;-73
2022/06/17 03:11:54;;;;;;;4.53;1.70;;;17.10;62.50;;;;;;5073701;28;21035;-73
2022/06/17 03:14:26;;;;;;;4.63;1.60;;;17.00;62.60;;;;;;5095502;28;20465;-73
2022/06/17 03:16:58;;;;;;;3.73;1.57;;;17.00;62.60;;;;;;5073146;28;21068;-73
2022/06/17 03:19:29;;;;;;;8.87;1.93;;;16.90;62.70;;;;;;5090215;28;20556;-72
2022/06/17 03:21:58;;;;;;;4.10;1.57;;;16.90;62.90;;;;;;5091233;28;20468;-73
2022/06/17 03:24:32;;;;;;;6.40;1.53;;;16.90;62.90;;;;;;5092309;28;20477;-73
2022/06/17 03:27:10;;;;;;;4.83;1.70;;;16.90;63.00;;;;;;5088639;28;20518;-73
2022/06/17 03:29:41;;;;;;;4.10;1.77;;;16.90;63.00;;;;;;5092017;28;20482;-72
2022/06/17 03:32:15;;;;;;;4.70;1.97;;;16.80;63.00;;;;;;5084022;28;20484;-74
2022/06/17 03:34:49;;;;;;;4.73;1.70;;;16.80;63.10;;;;;;5075376;28;20506;-73
2022/06/17 03:37:22;;;;;;;5.33;1.70;;;16.90;63.20;;;;;;5084205;28;21057;-72
2022/06/17 03:39:54;;;;;;;5.10;1.60;;;16.90;63.30;;;;;;5073147;28;20457;-73
2022/06/17 03:42:29;;;;;;;4.90;1.77;;;16.90;63.30;;;;;;5071499;28;20476;-72
2022/06/17 03:45:03;;;;;;;3.80;1.40;;;16.90;63.40;;;;;;5072207;28;20472;-73
2022/06/17 03:47:41;;;;;;;3.90;1.70;;;17.00;63.40;;;;;;5071240;28;20469;-73
2022/06/17 03:50:22;;;;;;;6.63;1.47;;;17.00;63.40;;;;;;5089634;28;20453;-73
2022/06/17 03:52:56;;;;;;;4.17;1.60;;;17.00;63.40;;;;;;5070143;28;20487;-73
2022/06/17 03:55:24;;;;;;;4.03;1.33;;;16.90;63.20;;;;;;5069356;28;21336;-73
2022/06/17 03:57:55;;;;;;;4.50;1.67;;;17.00;63.40;;;;;;5087697;28;20832;-73
2022/06/17 04:00:41;;;;;;;5.30;2.00;;;17.00;63.40;;;;;;5090120;28;21023;-74
2022/06/17 04:03:13;;;;;;;4.80;1.70;;;17.00;63.60;;;;;;5085785;28;20820;-74
2022/06/17 04:05:44;;;;;;;6.43;2.13;;;17.00;63.60;;;;;;5079896;28;20981;-74
2022/06/17 04:08:14;;;;;;;3.90;1.70;;;17.10;63.70;;;;;;5088461;28;20465;-73
2022/06/17 04:10:45;;;;;;;4.47;1.73;;;17.10;63.70;;;;;;5089904;28;20457;-73
2022/06/17 04:13:16;;;;;;;6.50;1.47;;;17.20;63.60;;;;;;5073168;28;20489;-74
2022/06/17 04:16:14;;;;;;;5.07;1.50;;;17.20;63.70;;;;;;5089699;28;20523;-73
2022/06/17 04:18:42;;;;;;;4.90;2.03;;;17.30;63.70;;;;;;5089535;28;20453;-73
2022/06/17 04:21:13;;;;;;;4.13;1.60;;;17.40;63.70;;;;;;5089431;28;20564;-74
2022/06/17 04:23:47;;;;;;;4.20;1.67;;;17.40;63.70;;;;;;5072676;28;20559;-73
2022/06/17 04:26:51;;;;;;;9.13;1.77;;;17.50;63.80;;;;;;5088950;28;20461;-74
2022/06/17 04:29:26;;;;;;;4.40;1.80;;;17.70;63.80;;;;;;5089345;28;20469;-73
2022/06/17 04:32:03;;;;;;;5.43;2.10;;;17.80;63.80;;;;;;5089241;28;20473;-72
2022/06/17 04:34:31;;;;;;;3.90;1.60;;;17.90;63.50;;;;;;5074691;28;20465;-75
2022/06/17 04:37:05;;;;;;;4.60;1.90;;;18.00;63.60;;;;;;5072452;28;20453;-74
2022/06/17 04:39:54;;;;;;;3.33;1.23;;;18.20;63.80;;;;;;5088180;28;20473;-75
2022/06/17 04:42:47;;;;;;;7.30;2.00;;;18.40;63.80;;;;;;5071328;28;20589;-74
2022/06/17 04:45:20;;;;;;;4.40;1.90;;;18.70;63.70;;;;;;5089835;28;20573;-75
2022/06/17 04:47:49;;;;;;;4.53;1.90;;;18.90;63.60;;;;;;5070022;28;20466;-74
2022/06/17 04:50:23;;;;;;;11.80;2.60;;;19.10;63.50;;;;;;5072233;28;20484;-74
2022/06/17 04:52:55;;;;;;;4.37;1.90;;;19.30;63.40;;;;;;5090368;28;20500;-75
2022/06/17 04:55:29;;;;;;;4.50;2.00;;;19.50;63.40;;;;;;5090349;28;20460;-74
2022/06/17 04:58:12;;;;;;;5.57;2.00;;;19.60;63.30;;;;;;5084069;28;20464;-75
2022/06/17 05:00:45;;;;;;;6.03;1.83;;;19.80;63.30;;;;;;5087533;28;20479;-74
2022/06/17 05:03:14;;;;;;;4.60;1.80;;;20.00;63.30;;;;;;5071638;28;21040;-74
2022/06/17 05:05:51;;;;;;;4.13;1.80;;;20.10;63.10;;;;;;5076884;28;20480;-74
2022/06/17 05:08:26;;;;;;;6.10;1.83;;;20.30;63.10;;;;;;5083084;28;20472;-74
2022/06/17 05:11:00;;;;;;;5.30;1.60;;;20.40;63.10;;;;;;5070487;28;20493;-73
2022/06/17 05:13:34;;;;;;;5.40;1.80;;;20.60;63.20;;;;;;5092055;28;20454;-74
2022/06/17 05:16:02;;;;;;;5.80;1.83;;;20.70;63.20;;;;;;5070956;28;20516;-74
2022/06/17 05:18:30;;;;;;;7.47;1.87;;;20.80;63.20;;;;;;5070334;28;20500;-73
2022/06/17 05:21:18;;;;;;;4.40;1.97;;;21.00;63.00;;;;;;5084416;28;20570;-74
2022/06/17 05:23:51;;;;;;;5.17;2.37;;;21.10;62.80;;;;;;5089542;28;20471;-74
2022/06/17 05:26:19;;;;;;;5.90;2.57;;;21.20;62.60;;;;;;5088821;28;20467;-74
2022/06/17 05:28:47;;;;;;;4.40;1.90;;;21.40;62.60;;;;;;5086868;28;20459;-74
2022/06/17 05:31:19;;;;;;;5.27;1.83;;;21.50;62.50;;;;;;5089832;28;20601;-75
2022/06/17 05:33:51;;;;;;;4.03;1.37;;;21.60;62.20;;;;;;5069258;28;20971;-72
2022/06/17 05:36:20;;;;;;;5.10;2.13;;;21.80;62.20;;;;;;5071933;28;20453;-74
2022/06/17 05:38:52;;;;;;;9.00;1.73;;;22.00;62.40;;;;;;5071644;28;20837;-77
2022/06/17 05:41:23;;;;;;;5.17;1.60;;;22.40;62.60;;;;;;5074320;28;20473;-73
2022/06/17 05:43:51;;;;;;;6.43;1.93;;;23.10;61.60;;;;;;5084140;28;20490;-76
2022/06/17 05:46:27;;;;;;;7.20;1.70;;;23.90;60.40;;;;;;5065543;28;21058;-72
2022/06/17 05:49:07;;;;;;;4.70;2.03;;;25.00;58.70;;;;;;5082008;28;20463;-74
2022/06/17 05:51:58;;;;;;;4.90;2.03;;;26.10;57.20;;;;;;5080129;28;20484;-75
2022/06/17 05:54:34;;;;;;;5.23;1.33;;;27.00;55.50;;;;;;5085890;28;20448;-75
2022/06/17 05:57:07;;;;;;;5.20;2.13;;;27.60;54.50;;;;;;5069682;28;21062;-75
2022/06/17 05:59:35;;;;;;;4.80;1.90;;;28.10;53.50;;;;;;5086390;28;20455;-75
2022/06/17 06:02:04;;;;;;;9.93;1.50;;;28.50;52.70;;;;;;5068081;28;20489;-75
2022/06/17 06:04:47;;;;;;;4.27;1.60;;;28.80;52.00;;;;;;5069665;28;20488;-77
2022/06/17 06:07:17;;;;;;;6.53;1.70;;;29.10;51.30;;;;;;5072214;28;20456;-74
2022/06/17 06:09:46;;;;;;;5.67;1.90;;;29.20;50.90;;;;;;5069011;28;20472;-75
2022/06/17 06:12:14;;;;;;;3.93;1.40;;;28.90;50.30;;;;;;5071029;28;20488;-74
2022/06/17 06:14:42;;;;;;;5.00;1.80;;;28.30;50.30;;;;;;5087721;28;20492;-72
2022/06/17 06:17:12;;;;;;;5.43;1.63;;;27.80;51.20;;;;;;5087087;28;20576;-74
2022/06/17 06:19:42;;;;;;;7.37;2.77;;;27.50;51.40;;;;;;5070760;28;20507;-75
2022/06/17 06:22:10;;;;;;;3.83;1.47;;;27.30;51.30;;;;;;5088814;28;20494;-74
2022/06/17 06:24:40;;;;;;;5.37;1.43;;;26.80;51.00;;;;;;5087465;28;20883;-75
2022/06/17 06:27:10;;;;;;;5.00;2.13;;;26.30;51.60;;;;;;5083371;28;20540;-75
2022/06/17 06:29:46;;;;;;;5.00;2.00;;;25.80;51.40;;;;;;5069747;28;20456;-75
2022/06/17 06:32:18;;;;;;;6.80;1.90;;;25.30;51.70;;;;;;5082795;28;20486;-73
2022/06/17 06:34:54;;;;;;;3.77;1.70;;;24.90;52.30;;;;;;5075306;28;21154;-73
2022/06/17 06:37:23;;;;;;;4.37;1.70;;;24.60;52.70;;;;;;5070269;28;20453;-73
2022/06/17 06:39:51;;;;;;;5.37;1.90;;;24.40;53.10;;;;;;5087962;28;20456;-72
2022/06/17 06:42:20;;;;;;;4.97;1.77;;;24.20;53.30;;;;;;5087624;28;20472;-73
2022/06/17 06:45:26;;;;;;;4.50;1.60;;;24.00;53.40;;;;;;5084670;28;20548;-73
2022/06/17 06:47:56;;;;;;;4.10;1.60;;;23.90;53.70;;;;;;5085161;28;20958;-73
2022/06/17 06:50:26;;;;;;;4.50;1.57;;;23.70;53.90;;;;;;5083954;28;20447;-74
2022/06/17 06:52:55;;;;;;;5.63;1.97;;;23.50;53.90;;;;;;5068184;28;20483;-73
2022/06/17 06:55:23;;;;;;;8.33;1.80;;;23.30;54.20;;;;;;5089015;28;20457;-75
2022/06/17 06:57:54;;;;;;;4.80;1.70;;;23.20;54.50;;;;;;5069564;28;21248;-75
2022/06/17 07:00:25;;;;;;;6.30;1.90;;;23.10;54.70;;;;;;5082989;28;20555;-74
2022/06/17 07:02:53;;;;;;;4.60;1.60;;;23.10;54.90;;;;;;5086015;28;21269;-74
2022/06/17 07:05:22;;;;;;;6.20;1.70;;;23.10;55.00;;;;;;5088856;28;20992;-74
2022/06/17 07:07:50;;;;;;;5.43;1.73;;;23.00;55.00;;;;;;5084093;28;21046;-73
2022/06/17 07:10:22;;;;;;;5.90;1.70;;;23.00;55.10;;;;;;5084615;28;20480;-74
2022/06/17 07:12:50;;;;;;;4.60;1.60;;;23.00;55.30;;;;;;5087994;28;20966;-74
2022/06/17 07:15:20;;;;;;;4.43;1.33;;;23.00;55.20;;;;;;5088303;28;20472;-75
2022/06/17 07:17:55;;;;;;;6.23;1.83;;;22.90;55.20;;;;;;5087562;28;20823;-74
2022/06/17 07:20:24;;;;;;;5.67;1.60;;;22.80;55.20;;;;;;5088576;28;20949;-74
2022/06/17 07:22:52;;;;;;;7.23;1.60;;;22.70;55.40;;;;;;5088115;28;20468;-74
2022/06/17 07:25:21;;;;;;;7.57;1.83;;;22.70;55.50;;;;;;5088802;28;20483;-74
2022/06/17 07:27:50;;;;;;;5.13;1.73;;;22.80;55.70;;;;;;5087593;28;20529;-75
2022/06/17 07:30:21;;;;;;;5.40;2.00;;;22.80;55.60;;;;;;5088300;28;20450;-74
2022/06/17 07:32:50;;;;;;;5.97;2.00;;;22.80;55.60;;;;;;5087790;28;20466;-74
2022/06/17 07:35:18;;;;;;;5.33;1.60;;;22.80;55.60;;;;;;5087877;28;20465;-73
2022/06/17 07:40:32;;;;;;;6.47;2.67;;;22.80;55.80;;;;;;5085848;28;20448;-74
2022/06/17 07:43:01;;;;;;;6.17;1.90;;;22.90;56.00;;;;;;5087857;28;20472;-75
2022/06/17 07:45:32;;;;;;;6.10;1.70;;;23.00;55.90;;;;;;5086818;28;20524;-74
2022/06/17 07:48:01;;;;;;;7.57;2.00;;;23.00;55.80;;;;;;5068979;28;20461;-73
2022/06/17 07:50:34;;;;;;;6.50;1.80;;;23.10;55.70;;;;;;5085680;28;20464;-74
2022/06/17 07:53:02;;;;;;;3.93;1.10;;;23.10;55.80;;;;;;5090947;28;20981;-74
2022/06/17 07:55:30;;;;;;;5.93;1.53;;;23.20;55.80;;;;;;5091679;28;20480;-76
2022/06/17 07:57:58;;;;;;;4.23;1.87;;;23.20;55.80;;;;;;5091321;28;20465;-74
2022/06/17 08:00:29;;;;;;;8.50;1.47;;;23.30;55.70;;;;;;5090366;28;20470;-75
2022/06/17 08:02:58;;;;;;;5.27;1.50;;;23.40;55.60;;;;;;5090424;28;20556;-74
2022/06/17 08:05:26;;;;;;;6.67;1.43;;;23.40;55.50;;;;;;5091904;28;20510;-74
2022/06/17 08:07:55;;;;;;;6.17;1.57;;;23.40;55.40;;;;;;5091255;28;20468;-74
2022/06/17 08:10:25;;;;;;;5.10;1.50;;;23.40;55.40;;;;;;5091000;28;20501;-75
2022/06/17 08:12:53;;;;;;;6.23;1.80;;;23.40;55.10;;;;;;5072845;28;20483;-75
2022/06/17 08:15:22;;;;;;;12.27;2.07;;;23.40;55.10;;;;;;5091351;28;20449;-74
2022/06/17 08:17:52;;;;;;;5.90;1.70;;;23.40;55.00;;;;;;5089753;28;20459;-75
2022/06/17 08:20:24;;;;;;;6.60;1.83;;;23.40;54.80;;;;;;5091298;28;20846;-74
2022/06/17 08:22:52;;;;;;;4.70;1.57;;;23.40;54.90;;;;;;5089270;28;20476;-75
2022/06/17 08:25:21;;;;;;;5.23;1.80;;;23.40;54.90;;;;;;5091854;28;20448;-74
2022/06/17 08:27:51;;;;;;;11.03;2.90;;;23.50;54.50;;;;;;5091242;28;20823;-75
2022/06/17 08:30:22;;;;;;;7.33;2.07;;;23.50;54.50;;;;;;5072272;28;20471;-75
2022/06/17 08:32:53;;;;;;;6.67;1.90;;;23.50;54.50;;;;;;5090635;28;20478;-75
2022/06/17 08:35:26;;;;;;;5.57;1.60;;;23.50;54.40;;;;;;5090152;28;20503;-76
2022/06/17 08:37:57;;;;;;;17.07;2.30;;;23.50;54.40;;;;;;5089770;28;20441;-74
2022/06/17 08:40:36;;;;;;;6.53;2.27;;;23.50;54.50;;;;;;5090135;28;20471;-74
2022/06/17 08:43:20;;;;;;;5.83;2.10;;;23.50;54.50;;;;;;5086553;28;20479;-75
2022/06/17 08:45:57;;;;;;;7.20;1.87;;;23.50;54.20;;;;;;5090176;28;20527;-75
2022/06/17 08:48:33;;;;;;;4.30;1.80;;;23.50;54.30;;;;;;5090990;28;20451;-76
2022/06/17 08:51:25;;;;;;;5.57;1.80;;;23.50;54.30;;;;;;5083810;28;20493;-75
2022/06/17 08:54:16;;;;;;;6.73;1.90;;;23.60;54.40;;;;;;5090671;28;20454;-75
2022/06/17 08:56:50;;;;;;;8.40;2.07;;;23.60;54.50;;;;;;5090087;28;20943;-74
2022/06/17 08:59:32;;;;;;;5.97;2.17;;;23.60;54.40;;;;;;5090811;28;20442;-74
2022/06/17 09:02:19;;;;;;;4.03;1.67;;;23.70;54.20;;;;;;5089875;28;20482;-74
2022/06/17 09:05:07;;;;;;;7.70;2.10;;;23.70;54.20;;;;;;5090164;28;20460;-75
2022/06/17 09:07:54;;;;;;;4.40;1.70;;;23.70;54.00;;;;;;5090671;28;20473;-76
2022/06/17 09:10:38;;;;;;;5.73;1.80;;;23.70;54.00;;;;;;5086630;28;21021;-76
2022/06/17 09:13:21;;;;;;;5.40;1.87;;;23.80;54.10;;;;;;5084113;28;20457;-74
2022/06/17 09:15:56;;;;;;;5.30;1.87;;;23.80;54.10;;;;;;5089889;28;20511;-74
2022/06/17 09:18:30;;;;;;;4.57;1.70;;;23.80;54.10;;;;;;5090689;28;20935;-74
2022/06/17 09:21:05;;;;;;;5.43;1.80;;;23.80;54.10;;;;;;5070630;28;20484;-74
2022/06/17 09:23:39;;;;;;;4.80;1.53;;;23.80;54.20;;;;;;5090689;28;20515;-73
2022/06/17 09:26:12;;;;;;;5.60;2.20;;;23.80;54.20;;;;;;5085615;28;20943;-74
2022/06/17 09:28:45;;;;;;;4.80;1.63;;;23.80;54.10;;;;;;5089538;28;20462;-76
2022/06/17 09:31:17;;;;;;;7.30;2.23;;;23.80;54.00;;;;;;5089598;28;20470;-75
2022/06/17 09:33:50;;;;;;;6.10;2.33;;;23.80;54.00;;;;;;5090286;28;20449;-75
2022/06/17 09:36:22;;;;;;;4.70;1.70;;;23.80;53.90;;;;;;5089081;28;20458;-76
2022/06/17 09:38:57;;;;;;;7.20;2.10;;;23.80;53.90;;;;;;5089561;28;20466;-75
2022/06/17 09:41:31;;;;;;;6.47;1.67;;;23.80;53.80;;;;;;5091547;28;20489;-74
2022/06/17 09:44:05;;;;;;;8.10;1.97;;;23.90;53.80;;;;;;5089731;28;20457;-75
2022/06/17 09:46:39;;;;;;;4.40;1.60;;;23.90;53.70;;;;;;5088865;28;20493;-75
2022/06/17 09:49:17;;;;;;;6.03;1.90;;;23.90;53.60;;;;;;5083598;28;20446;-76
2022/06/17 09:51:50;;;;;;;4.90;1.70;;;24.00;53.60;;;;;;5088612;28;20529;-75
2022/06/17 09:54:24;;;;;;;5.40;1.80;;;24.00;53.60;;;;;;5088681;28;20508;-74
2022/06/17 09:56:57;;;;;;;6.43;1.90;;;24.00;53.30;;;;;;5089050;28;20465;-75
2022/06/17 09:59:32;;;;;;;5.97;2.03;;;24.00;53.20;;;;;;5089808;28;20457;-75
2022/06/17 10:02:21;;;;;;;6.20;1.87;;;24.00;53.20;;;;;;5088516;28;20581;-75
2022/06/17 10:04:51;;;;;;;4.40;1.50;;;24.10;53.10;;;;;;5089073;28;20534;-74
2022/06/17 10:07:31;;;;;;;4.10;1.53;;;24.10;53.00;;;;;;5088935;28;20997;-76
2022/06/17 10:10:15;;;;;;;4.30;1.43;;;24.10;52.90;;;;;;5088821;28;20804;-76
2022/06/17 10:12:55;;;;;;;5.30;2.03;;;24.10;53.10;;;;;;5088625;28;21314;-75
2022/06/17 10:15:35;;;;;;;4.50;1.77;;;24.20;53.10;;;;;;5088028;28;20450;-75
2022/06/17 10:18:32;;;;;;;5.20;1.43;;;24.20;53.20;;;;;;5086573;28;20498;-74
2022/06/17 10:21:15;;;;;;;5.67;1.80;;;24.30;53.50;;;;;;5088190;28;20504;-75
2022/06/17 10:23:51;;;;;;;5.13;1.80;;;24.60;53.30;;;;;;5088139;28;20471;-75
2022/06/17 10:26:30;;;;;;;4.80;1.70;;;24.90;53.00;;;;;;5088832;28;20481;-74
2022/06/17 10:29:15;;;;;;;3.93;1.30;;;25.10;52.70;;;;;;5087812;28;20948;-74
2022/06/17 10:31:45;;;;;;;4.30;1.77;;;25.20;52.20;;;;;;5088167;28;20476;-76
2022/06/17 10:34:17;;;;;;;4.07;1.50;;;25.20;52.00;;;;;;5087210;28;20954;-76
2022/06/17 10:36:46;;;;;;;6.13;1.63;;;25.30;51.80;;;;;;5088560;28;20454;-75
2022/06/17 10:39:16;;;;;;;4.30;1.43;;;25.30;51.60;;;;;;5088969;28;20438;-75
2022/06/17 10:41:47;;;;;;;7.40;1.40;;;25.30;51.20;;;;;;5088346;28;21157;-75
2022/06/17 10:44:19;;;;;;;4.50;1.67;;;25.40;51.20;;;;;;5087846;28;20458;-75
2022/06/17 10:46:52;;;;;;;5.10;1.40;;;25.40;50.70;;;;;;5086915;28;21265;-75
2022/06/17 10:49:30;;;;;;;5.83;1.63;;;25.40;50.70;;;;;;5086575;28;20456;-74
2022/06/17 10:51:59;;;;;;;4.80;1.27;;;25.50;50.70;;;;;;5069066;28;20592;-73
2022/06/17 10:54:33;;;;;;;4.20;1.67;;;25.50;50.70;;;;;;5086333;28;20441;-75
2022/06/17 10:57:07;;;;;;;7.03;1.60;;;25.50;50.70;;;;;;5088582;28;20850;-75
2022/06/17 10:59:39;;;;;;;3.70;1.20;;;25.60;50.60;;;;;;5088616;28;20445;-74
2022/06/17 11:02:23;;;;;;;5.43;1.83;;;25.60;50.60;;;;;;5083650;28;20849;-74
2022/06/17 11:04:54;;;;;;;4.90;1.60;;;25.70;50.40;;;;;;5085941;28;20468;-74
2022/06/17 11:07:28;;;;;;;4.70;1.20;;;25.80;50.10;;;;;;5087757;28;20481;-74
2022/06/17 11:09:59;;;;;;;5.77;1.60;;;25.70;49.70;;;;;;5087575;28;20496;-75
2022/06/17 11:12:34;;;;;;;4.77;1.77;;;25.80;49.70;;;;;;5063868;28;20518;-74
2022/06/17 11:15:05;;;;;;;5.47;1.93;;;25.80;49.70;;;;;;5089047;28;20874;-75
2022/06/17 11:17:39;;;;;;;4.07;1.67;;;25.80;49.50;;;;;;5084669;28;20474;-76
2022/06/17 11:20:20;;;;;;;4.40;1.63;;;25.80;49.40;;;;;;5081115;28;20859;-74
2022/06/17 11:23:21;;;;;;;3.97;1.43;;;25.80;49.20;;;;;;5087397;28;20459;-74
2022/06/17 11:25:51;;;;;;;3.50;1.50;;;25.80;49.20;;;;;;5088593;28;20448;-75
2022/06/17 11:28:32;;;;;;;7.30;1.67;;;25.80;49.10;;;;;;5076155;28;20481;-72
2022/06/17 11:31:03;;;;;;;4.90;1.37;;;25.80;49.00;;;;;;5091281;28;20496;-73
2022/06/17 11:33:33;;;;;;;5.20;1.60;;;25.80;48.90;;;;;;5071223;28;20500;-75
2022/06/17 11:36:06;;;;;;;3.90;1.10;;;25.80;48.70;;;;;;5090518;28;20450;-72
2022/06/17 11:38:35;;;;;;;8.73;1.60;;;25.80;48.60;;;;;;5087479;28;20467;-72
2022/06/17 11:41:22;;;;;;;6.33;1.30;;;25.80;48.40;;;;;;5087947;28;20471;-76
2022/06/17 11:43:54;;;;;;;6.00;1.57;;;25.90;48.40;;;;;;5092016;28;20970;-73
2022/06/17 11:46:25;;;;;;;5.50;1.30;;;25.90;48.10;;;;;;5090353;28;20500;-75
2022/06/17 11:48:57;;;;;;;4.10;1.50;;;25.90;48.40;;;;;;5090143;28;20469;-75
2022/06/17 11:51:29;;;;;;;6.23;1.80;;;25.90;48.50;;;;;;5092468;28;20489;-73
2022/06/17 11:53:59;;;;;;;4.00;1.40;;;26.00;48.60;;;;;;5091410;28;20457;-73
2022/06/17 11:56:34;;;;;;;4.97;1.60;;;25.90;48.50;;;;;;5085396;28;20462;-75
2022/06/17 11:59:11;;;;;;;3.93;1.30;;;25.90;48.60;;;;;;5091998;28;20543;-75
2022/06/17 12:01:39;;;;;;;4.63;1.57;;;25.90;48.60;;;;;;5091316;28;20523;-75
2022/06/17 12:04:32;;;;;;;4.30;1.30;;;25.90;48.70;;;;;;5092612;28;20458;-73
2022/06/17 12:07:01;;;;;;;4.33;1.40;;;25.90;48.60;;;;;;5091372;28;20471;-73
2022/06/17 12:09:36;;;;;;;7.20;1.73;;;25.90;48.70;;;;;;5072609;28;20482;-73
2022/06/17 12:12:11;;;;;;;4.20;1.20;;;25.90;48.80;;;;;;5086678;28;20469;-74
2022/06/17 12:14:51;;;;;;;5.03;1.50;;;25.90;49.10;;;;;;5091305;28;20492;-75
2022/06/17 12:17:21;;;;;;;4.20;1.30;;;26.00;49.10;;;;;;5088370;28;20482;-75
2022/06/17 12:19:54;;;;;;;5.20;1.20;;;26.00;48.80;;;;;;5090842;28;20441;-73
2022/06/17 12:22:29;;;;;;;4.20;1.60;;;26.00;48.60;;;;;;5088112;28;20498;-74
2022/06/17 12:25:02;;;;;;;3.67;1.30;;;26.10;48.50;;;;;;5091087;28;20446;-73
2022/06/17 12:27:35;;;;;;;6.53;1.30;;;26.10;48.40;;;;;;5087910;28;20553;-74
2022/06/17 12:30:39;;;;;;;5.23;1.30;;;26.20;48.40;;;;;;5089070;28;20462;-72
2022/06/17 12:33:16;;;;;;;7.17;1.50;;;26.30;48.20;;;;;;5088455;28;21229;-74
2022/06/17 12:35:47;;;;;;;4.33;1.20;;;26.30;48.20;;;;;;5089481;28;20945;-73
2022/06/17 12:38:29;;;;;;;3.80;1.30;;;26.40;47.80;;;;;;5090481;28;20457;-72
2022/06/17 12:41:04;;;;;;;4.63;1.37;;;26.40;47.80;;;;;;5090906;28;20456;-72
2022/06/17 12:43:37;;;;;;;5.00;1.70;;;26.40;47.60;;;;;;5078633;28;20462;-72
2022/06/17 12:46:12;;;;;;;3.90;1.20;;;26.50;47.50;;;;;;5086483;28;20882;-74
2022/06/17 12:48:50;;;;;;;4.27;1.33;;;26.50;47.40;;;;;;5089093;28;20493;-72
2022/06/17 12:54:23;;;;;;;4.33;1.33;;;26.60;47.00;;;;;;5086974;28;20460;-74
2022/06/17 12:57:02;;;;;;;6.23;1.47;;;26.70;47.20;;;;;;5072024;28;20544;-72
2022/06/17 12:59:40;;;;;;;3.60;1.20;;;26.70;47.10;;;;;;5091048;28;20507;-73
2022/06/17 13:02:15;;;;;;;6.90;1.43;;;26.70;46.90;;;;;;5087975;28;20509;-75
2022/06/17 13:05:03;;;;;;;3.73;1.40;;;26.80;46.90;;;;;;5088879;28;20447;-73
2022/06/17 13:07:40;;;;;;;3.87;1.30;;;26.80;46.90;;;;;;5090627;28;20472;-73
2022/06/17 13:13:11;;;;;;;4.37;1.27;;;26.90;46.90;;;;;;5088804;28;20492;-74
2022/06/17 13:20:35;;;;;;;3.73;1.23;;;27.00;47.00;;;;;;5089401;28;20447;-75
2022/06/17 13:23:11;;;;;;;8.93;1.40;;;26.90;46.70;;;;;;5088347;28;20530;-76
2022/06/17 13:25:45;;;;;;;3.93;1.50;;;26.90;46.60;;;;;;5089588;28;20474;-73
2022/06/17 13:28:23;;;;;;;5.20;1.20;;;26.90;46.50;;;;;;5084351;28;21003;-73
2022/06/17 13:31:01;;;;;;;5.33;1.37;;;26.90;46.50;;;;;;5088628;28;20472;-71
2022/06/17 13:33:34;;;;;;;4.83;1.40;;;26.90;46.20;;;;;;5069806;28;20999;-72
2022/06/17 13:36:07;;;;;;;5.50;1.87;;;26.90;46.30;;;;;;5087576;28;20470;-72
2022/06/17 13:38:40;;;;;;;3.60;1.07;;;26.90;46.40;;;;;;5089444;28;20534;-72
2022/06/17 13:41:15;;;;;;;5.90;1.10;;;27.00;46.40;;;;;;5088710;28;20479;-73
2022/06/17 13:43:48;;;;;;;5.63;1.40;;;27.10;46.10;;;;;;5088718;28;20956;-72